โตเกียว, ประเทศญี่ปุ่น

07:25 AM JST วัน มีนาคม 06, 2015 (GMT +0900)
Tokyo (Haneda) International | Change Station
CLOSE
Current Station
Airport
Location: Tokyo,
Elevation: 26 ft
Nearby Weather Stations

Elev 26 ft 35.55 °N, 139.78 °E | Updated 25 minutes ago

Mostly Cloudy
มีเมฆคลุมเป็นส่วนใหญ่
45 ฟาเรนไฮน์
Feels Like 38 ฟาเรนไฮน์
N
14
ลม ความผันแปร ลม from ทางทิศเหนือและทิศตะวันออกเฉียงเหนือ

วันนี้
High -- | Low -- ฟาเรนไฮน์
--% Chance of Precip.
Yesterday
High -- | Low -- ฟาเรนไฮน์
Precip. -- นิ้ว
6:05 AM 5:39 PM
พระจันทร์เต็มดวง, 100% visible
ความดัน 30.24 นิ้ว
ทัศนวิสัย 6.2 ไมล์
เมฆ Few 3000 ft
มีเมฆคลุมเป็นส่วนใหญ่ 7000 ft
มีเมฆคลุมเป็นส่วนใหญ่ 8000 ft
ลมหนาว 38 ฟาเรนไฮน์
อุณหภูมิที่อากาศอาจจับตัวเป็นหยาดน้ำค้าง 30 ฟาเรนไฮน์
ความชื้น 57%
Rainfall 0.00 นิ้ว
Snow Depth Not available.
UV 0 out of 12
Pollen Not available.
Air Quality Not available.
Flu Activity Not available.
METAR RJTT 052200Z 03012KT 9999 FEW030 BKN070 BKN080 07/M01 Q1024 NOSIG RMK 1CU030 5AC070 6AC080 A3025

More Conditions Fewer Conditions

ความดัน 30.24 นิ้ว
ทัศนวิสัย 6.2 ไมล์
เมฆ Few 3000 ft
มีเมฆคลุมเป็นส่วนใหญ่ 7000 ft
มีเมฆคลุมเป็นส่วนใหญ่ 8000 ft
ลมหนาว 38 ฟาเรนไฮน์
อุณหภูมิที่อากาศอาจจับตัวเป็นหยาดน้ำค้าง 30 ฟาเรนไฮน์
ความชื้น 57%
Rainfall 0.00 นิ้ว
Snow Depth Not available.
UV 0 out of 12
Pollen Not available.
Air Quality Not available.
Flu Activity Not available.
METAR RJTT 052200Z 03012KT 9999 FEW030 BKN070 BKN080 07/M01 Q1024 NOSIG RMK 1CU030 5AC070 6AC080 A3025

More Conditions Fewer Conditions

10-Day Weather Forecast

Almanac

ดาราศาสตร์

Mar. 06, 2015 Rise Set
Actual Time
Civil Twilight
Nautical Twilight
Astronomical Twilight
Moon
Length Of Visible Light
ความยาวของวัน
Tomorrow will be .
, % of the Moon is Illuminated

Today's Extremes

Country Highs Country Lows

Community

WunderPhotos

Upload Photos

1,803,016 photos uploaded!

WunderBlogs® & News

Nearby

Air Quality

  Air Quality AQ Index Pollutant
Not available.

Snow Depth

Station Depth Elevation

Earthquake Activity

City Distance Mag. Time & Date
Minimum magnitude displayed is 2.5.

Coastal Water Temperatures

สถานที่ อุณหภูมิ

Nearby Weather Stations